Time;durP1;ratioP1;P1;durP2;ratioP2;P2;SDS_P1;SDS_P2;PMS_P1;PMS_P2;Temp;Humidity;BMP_temperature;BMP_pressure;BME280_temperature;BME280_humidity;BME280_pressure;Samples;Min_cycle;Max_cycle;Signal;HPM_P1;HPM_P2
2023/11/19 00:00:36;;;;;;;0.93;0.70;;;10.00;99.90;;;;;;4979679;28;20191;-72
2023/11/19 00:03:02;;;;;;;1.10;0.73;;;10.00;99.90;;;;;;4978439;28;20427;-72
2023/11/19 00:05:27;;;;;;;1.20;0.90;;;10.00;99.90;;;;;;4978295;28;20220;-71
2023/11/19 00:07:53;;;;;;;0.97;0.60;;;10.10;99.90;;;;;;4976945;28;20572;-71
2023/11/19 00:10:20;;;;;;;1.00;0.70;;;10.10;99.90;;;;;;4978739;28;20530;-71
2023/11/19 00:12:48;;;;;;;1.00;0.60;;;10.10;99.90;;;;;;5014531;28;20555;-72
2023/11/19 00:15:14;;;;;;;1.57;0.77;;;10.10;99.90;;;;;;5024623;28;20474;-73
2023/11/19 00:17:44;;;;;;;1.00;0.80;;;10.10;99.90;;;;;;4979802;28;20709;-73
2023/11/19 00:20:17;;;;;;;1.13;0.70;;;10.10;99.90;;;;;;4981980;28;20439;-73
2023/11/19 00:22:43;;;;;;;1.77;0.83;;;10.10;99.90;;;;;;4982092;28;20420;-70
2023/11/19 00:25:09;;;;;;;1.13;0.80;;;10.20;99.90;;;;;;4976834;28;20449;-72
2023/11/19 00:27:37;;;;;;;0.93;0.70;;;10.20;99.90;;;;;;5007324;28;20446;-70
2023/11/19 00:30:10;;;;;;;1.10;0.80;;;10.20;99.90;;;;;;4983188;28;20417;-73
2023/11/19 00:32:38;;;;;;;1.00;0.60;;;10.20;99.90;;;;;;4977945;28;20471;-72
2023/11/19 00:35:04;;;;;;;1.70;0.97;;;10.20;99.90;;;;;;4978762;28;20725;-71
2023/11/19 00:37:30;;;;;;;1.10;0.80;;;10.20;99.90;;;;;;4979724;28;20466;-74
2023/11/19 00:39:58;;;;;;;1.30;0.83;;;10.20;99.90;;;;;;4978064;28;20698;-70
2023/11/19 00:42:24;;;;;;;0.90;0.63;;;10.20;99.90;;;;;;4980284;28;20592;-71
2023/11/19 00:44:50;;;;;;;1.20;0.80;;;10.20;99.90;;;;;;5011645;28;20482;-72
2023/11/19 00:47:16;;;;;;;1.20;0.90;;;10.20;99.90;;;;;;4981492;28;20433;-71
2023/11/19 00:49:42;;;;;;;1.23;0.70;;;10.20;99.90;;;;;;4981100;28;20439;-71
2023/11/19 00:52:08;;;;;;;1.37;1.00;;;10.20;99.90;;;;;;4981970;28;20342;-73
2023/11/19 00:54:34;;;;;;;1.17;0.70;;;10.20;99.90;;;;;;4964833;28;20479;-73
2023/11/19 00:57:01;;;;;;;1.00;0.70;;;10.30;99.90;;;;;;4991707;28;20177;-71
2023/11/19 00:59:28;;;;;;;1.80;0.80;;;10.30;99.90;;;;;;4989107;28;20187;-70
2023/11/19 01:01:54;;;;;;;1.13;0.90;;;10.30;99.90;;;;;;4980576;28;20751;-71
2023/11/19 01:04:19;;;;;;;2.00;1.17;;;10.30;99.90;;;;;;4980927;28;20461;-72
2023/11/19 01:06:45;;;;;;;2.40;1.10;;;10.30;99.90;;;;;;4980169;28;20199;-71
2023/11/19 01:09:11;;;;;;;1.90;1.20;;;10.40;99.90;;;;;;4980649;28;20192;-72
2023/11/19 01:11:36;;;;;;;1.60;1.37;;;10.40;99.90;;;;;;4980639;28;20591;-72
2023/11/19 01:14:02;;;;;;;2.20;1.53;;;10.40;99.90;;;;;;4995941;28;20188;-71
2023/11/19 01:16:28;;;;;;;1.77;1.07;;;10.40;99.90;;;;;;5002653;28;20224;-73
2023/11/19 01:18:54;;;;;;;1.43;1.17;;;10.50;99.90;;;;;;4983229;28;20229;-74
2023/11/19 01:21:19;;;;;;;2.03;1.10;;;10.50;99.90;;;;;;4981058;28;20188;-71
2023/11/19 01:23:45;;;;;;;1.87;1.53;;;10.50;99.90;;;;;;4960775;28;20252;-71
2023/11/19 01:26:14;;;;;;;1.60;1.00;;;10.50;99.90;;;;;;4973531;28;20212;-71
2023/11/19 01:28:42;;;;;;;2.00;1.60;;;10.60;99.90;;;;;;4986790;28;20200;-71
2023/11/19 01:31:08;;;;;;;2.23;1.43;;;10.70;99.90;;;;;;4980313;28;20419;-69
2023/11/19 01:33:36;;;;;;;1.90;1.50;;;10.70;99.90;;;;;;4979353;28;20925;-70
2023/11/19 01:36:01;;;;;;;2.80;1.40;;;10.80;99.90;;;;;;4980371;28;20225;-70
2023/11/19 01:38:27;;;;;;;1.93;1.37;;;10.80;99.90;;;;;;4980698;28;20722;-70
2023/11/19 01:40:57;;;;;;;1.77;1.20;;;10.80;99.90;;;;;;4979669;28;20247;-70
2023/11/19 01:43:42;;;;;;;1.30;1.20;;;10.90;99.90;;;;;;4980883;28;20197;-70
2023/11/19 01:46:12;;;;;;;1.53;0.93;;;10.90;99.90;;;;;;4981095;28;20528;-73
2023/11/19 01:48:44;;;;;;;1.93;1.27;;;10.90;99.90;;;;;;4981140;28;20784;-71
2023/11/19 01:51:12;;;;;;;2.03;1.20;;;11.00;99.90;;;;;;4980551;28;20464;-72
2023/11/19 01:53:40;;;;;;;2.17;1.60;;;11.10;99.90;;;;;;4980733;28;20456;-72
2023/11/19 01:56:09;;;;;;;1.50;1.20;;;11.10;99.90;;;;;;4979661;28;20435;-72
2023/11/19 01:58:39;;;;;;;1.50;1.00;;;11.10;99.90;;;;;;4990341;28;20420;-71
2023/11/19 02:01:09;;;;;;;1.43;1.10;;;11.10;99.90;;;;;;4978661;28;20417;-70
2023/11/19 02:03:35;;;;;;;1.70;1.20;;;11.20;99.90;;;;;;4978098;28;20487;-72
2023/11/19 02:06:01;;;;;;;1.40;0.97;;;11.20;99.90;;;;;;4978212;28;20532;-72
2023/11/19 02:08:26;;;;;;;1.73;1.13;;;11.30;99.90;;;;;;4979383;28;20239;-72
2023/11/19 02:10:54;;;;;;;1.93;1.00;;;11.30;99.90;;;;;;4979164;28;20450;-70
2023/11/19 02:13:20;;;;;;;1.70;1.13;;;11.40;99.90;;;;;;5028195;28;20691;-69
2023/11/19 02:15:46;;;;;;;2.23;1.00;;;11.40;99.90;;;;;;4982074;28;20767;-72
2023/11/19 02:18:38;;;;;;;1.63;1.33;;;11.40;99.90;;;;;;4981164;28;20514;-72
2023/11/19 02:21:05;;;;;;;1.70;1.00;;;11.40;99.90;;;;;;4966639;28;20181;-71
2023/11/19 02:23:31;;;;;;;4.10;1.60;;;11.40;99.90;;;;;;4976647;28;20438;-71
2023/11/19 02:26:08;;;;;;;2.97;1.60;;;11.40;99.90;;;;;;4977023;28;20470;-70
2023/11/19 02:28:36;;;;;;;3.23;1.80;;;11.40;99.90;;;;;;4984938;28;20424;-71
2023/11/19 02:31:01;;;;;;;1.37;1.13;;;11.40;99.90;;;;;;4976431;28;20483;-71
2023/11/19 02:33:27;;;;;;;1.50;1.10;;;11.40;99.90;;;;;;4977518;28;20953;-69
2023/11/19 02:35:53;;;;;;;3.03;1.23;;;11.40;99.90;;;;;;4978711;28;20217;-72
2023/11/19 02:38:18;;;;;;;3.20;1.20;;;11.40;99.90;;;;;;4978290;28;20191;-71
2023/11/19 02:40:44;;;;;;;1.97;1.13;;;11.40;99.90;;;;;;4978481;28;20189;-70
2023/11/19 02:43:11;;;;;;;2.03;1.10;;;11.40;99.90;;;;;;5013384;28;20211;-71
2023/11/19 02:45:36;;;;;;;1.43;1.17;;;11.40;99.90;;;;;;5019293;28;20230;-71
2023/11/19 02:48:02;;;;;;;1.53;1.17;;;11.40;99.90;;;;;;4977150;28;20439;-69
2023/11/19 02:50:28;;;;;;;2.47;1.30;;;11.30;99.90;;;;;;4976231;28;20224;-71
2023/11/19 02:52:58;;;;;;;1.67;0.97;;;11.20;99.90;;;;;;4976725;28;20530;-70
2023/11/19 02:55:24;;;;;;;3.20;1.17;;;11.20;99.90;;;;;;4977511;28;20207;-70
2023/11/19 02:57:52;;;;;;;1.50;1.40;;;11.10;99.90;;;;;;5006046;28;20425;-70
2023/11/19 03:00:23;;;;;;;1.70;1.17;;;11.00;99.90;;;;;;4976366;28;20692;-71
2023/11/19 03:02:58;;;;;;;3.50;1.60;;;11.00;99.90;;;;;;4976827;28;20430;-70
2023/11/19 03:05:25;;;;;;;2.17;1.57;;;10.90;99.90;;;;;;4977565;28;20457;-70
2023/11/19 03:07:50;;;;;;;4.47;1.43;;;10.80;99.90;;;;;;4977883;28;20443;-70
2023/11/19 03:10:16;;;;;;;1.93;1.10;;;10.80;99.90;;;;;;4977278;28;20433;-70
2023/11/19 03:12:43;;;;;;;1.77;1.00;;;10.70;99.90;;;;;;4978203;28;20228;-70
2023/11/19 03:15:09;;;;;;;4.47;1.50;;;10.70;99.90;;;;;;5006164;28;20216;-69
2023/11/19 03:17:37;;;;;;;2.70;1.43;;;10.70;99.90;;;;;;4977388;28;20418;-70
2023/11/19 03:20:09;;;;;;;1.80;1.13;;;10.80;99.90;;;;;;4976269;28;20420;-70
2023/11/19 03:22:37;;;;;;;2.70;1.10;;;10.80;99.90;;;;;;4976763;28;20481;-71
2023/11/19 03:25:02;;;;;;;1.47;1.23;;;10.80;99.90;;;;;;4977620;28;20736;-70
2023/11/19 03:27:28;;;;;;;1.70;1.23;;;10.80;99.90;;;;;;4980600;28;20783;-69
2023/11/19 03:29:54;;;;;;;2.33;1.60;;;10.90;99.90;;;;;;4976682;28;20211;-71
2023/11/19 03:32:19;;;;;;;3.03;1.70;;;10.90;99.90;;;;;;4975506;28;20219;-69
2023/11/19 03:34:45;;;;;;;1.50;1.20;;;11.00;99.90;;;;;;4977360;28;20217;-69
2023/11/19 03:37:11;;;;;;;2.10;1.43;;;11.00;99.90;;;;;;4977551;28;20583;-70
2023/11/19 03:39:37;;;;;;;2.60;1.47;;;11.10;99.90;;;;;;4978403;28;20188;-72
2023/11/19 03:42:03;;;;;;;2.10;1.07;;;11.10;99.90;;;;;;4990875;28;20195;-71
2023/11/19 03:44:29;;;;;;;1.50;1.10;;;11.10;99.90;;;;;;4995932;28;20222;-71
2023/11/19 03:46:54;;;;;;;2.07;1.50;;;11.10;99.90;;;;;;4980212;28;20427;-69
2023/11/19 03:49:20;;;;;;;3.10;1.17;;;11.10;99.90;;;;;;4977648;28;20221;-71
2023/11/19 03:51:45;;;;;;;1.83;1.10;;;11.10;99.90;;;;;;4976527;28;20316;-70
2023/11/19 03:54:11;;;;;;;2.90;1.50;;;11.20;99.90;;;;;;4975553;28;20258;-70
2023/11/19 03:56:37;;;;;;;2.43;2.07;;;11.20;99.90;;;;;;4977027;28;20245;-69
2023/11/19 03:59:03;;;;;;;2.20;1.40;;;11.20;99.90;;;;;;4987394;28;20193;-71
2023/11/19 04:01:28;;;;;;;1.80;1.37;;;11.20;99.90;;;;;;4973988;28;20689;-70
2023/11/19 04:03:55;;;;;;;1.73;1.40;;;11.20;99.90;;;;;;4975002;28;20300;-71
2023/11/19 04:06:21;;;;;;;3.30;1.37;;;11.20;99.90;;;;;;4977279;28;20249;-71
2023/11/19 04:08:47;;;;;;;2.60;1.50;;;11.20;99.90;;;;;;4977477;28;20422;-70
2023/11/19 04:11:12;;;;;;;1.80;1.33;;;11.20;99.90;;;;;;4975132;28;20201;-69
2023/11/19 04:13:38;;;;;;;3.10;1.23;;;11.20;99.90;;;;;;4977347;28;20229;-71
2023/11/19 04:16:05;;;;;;;2.53;1.60;;;11.20;99.90;;;;;;4983024;28;20241;-71
2023/11/19 04:18:31;;;;;;;5.53;1.67;;;11.20;99.90;;;;;;4976154;28;20512;-69
2023/11/19 04:20:57;;;;;;;1.97;1.40;;;11.20;99.90;;;;;;4976224;28;20453;-70
2023/11/19 04:23:24;;;;;;;3.90;1.40;;;11.20;99.90;;;;;;4974141;28;20444;-70
2023/11/19 04:25:50;;;;;;;3.00;2.10;;;11.20;99.90;;;;;;4975548;28;20233;-70
2023/11/19 04:28:16;;;;;;;2.90;1.47;;;11.20;99.90;;;;;;5019546;28;20512;-69
2023/11/19 04:30:41;;;;;;;3.30;1.40;;;11.20;99.90;;;;;;5000317;28;20199;-70
2023/11/19 04:33:07;;;;;;;6.20;1.70;;;11.20;99.90;;;;;;4975215;28;20266;-71
2023/11/19 04:35:32;;;;;;;2.53;1.90;;;11.20;99.90;;;;;;4975777;28;20627;-70
2023/11/19 04:37:58;;;;;;;3.33;2.30;;;11.20;99.90;;;;;;4975761;28;20186;-69
2023/11/19 04:40:23;;;;;;;2.63;1.80;;;11.20;99.90;;;;;;4975222;28;20196;-71
2023/11/19 04:42:49;;;;;;;4.10;2.10;;;11.20;99.90;;;;;;5019058;28;20212;-70
2023/11/19 04:45:16;;;;;;;4.80;1.50;;;11.20;99.90;;;;;;5024582;28;20222;-71
2023/11/19 04:47:42;;;;;;;2.97;1.80;;;11.20;99.90;;;;;;4975088;28;20208;-68
2023/11/19 04:50:10;;;;;;;5.93;1.90;;;11.20;99.90;;;;;;4974763;28;20488;-71
2023/11/19 04:52:40;;;;;;;9.10;1.90;;;11.20;99.90;;;;;;4975335;28;20536;-70
2023/11/19 04:55:06;;;;;;;4.23;1.70;;;11.20;99.90;;;;;;4975531;28;20523;-71
2023/11/19 04:57:32;;;;;;;7.90;2.90;;;11.20;99.90;;;;;;5006938;28;20450;-70
2023/11/19 04:59:58;;;;;;;5.17;2.07;;;11.20;99.90;;;;;;4979896;28;20668;-70
2023/11/19 05:02:24;;;;;;;6.50;2.10;;;11.20;99.90;;;;;;4973386;28;20504;-69
2023/11/19 05:04:49;;;;;;;2.50;2.30;;;11.20;99.90;;;;;;4973144;28;20213;-69
2023/11/19 05:07:15;;;;;;;3.43;1.73;;;11.10;99.90;;;;;;4973275;28;20269;-70
2023/11/19 05:09:40;;;;;;;2.20;1.60;;;11.00;99.90;;;;;;4972668;28;20487;-69
2023/11/19 05:12:09;;;;;;;1.50;1.27;;;10.90;99.90;;;;;;4987057;28;20265;-69
2023/11/19 05:14:35;;;;;;;3.20;1.60;;;10.80;99.90;;;;;;5010652;28;20304;-70
2023/11/19 05:17:01;;;;;;;1.63;1.30;;;10.80;99.90;;;;;;4990778;28;20550;-69
2023/11/19 05:19:26;;;;;;;3.53;1.63;;;10.70;99.90;;;;;;4973194;28;20189;-68
2023/11/19 05:21:52;;;;;;;11.33;2.13;;;10.60;99.90;;;;;;4972658;28;20244;-69
2023/11/19 05:24:18;;;;;;;6.70;2.23;;;10.60;99.90;;;;;;4973521;28;20596;-68
2023/11/19 05:26:43;;;;;;;4.60;2.50;;;10.50;99.90;;;;;;4973741;28;20185;-68
2023/11/19 05:29:09;;;;;;;7.73;2.73;;;10.40;99.90;;;;;;5007700;28;20192;-69
2023/11/19 05:31:34;;;;;;;7.23;3.17;;;10.40;99.90;;;;;;4976017;28;20185;-69
2023/11/19 05:34:00;;;;;;;7.40;2.70;;;10.40;99.90;;;;;;4977403;28;20224;-69
2023/11/19 05:36:25;;;;;;;8.50;2.77;;;10.30;99.90;;;;;;4977484;28;20481;-69
2023/11/19 05:38:51;;;;;;;8.00;3.20;;;10.30;99.90;;;;;;4977069;28;20276;-68
2023/11/19 05:41:17;;;;;;;5.63;2.27;;;10.20;99.90;;;;;;4977339;28;20244;-69
2023/11/19 05:43:42;;;;;;;12.47;4.03;;;10.10;99.90;;;;;;4999920;28;20287;-69
2023/11/19 05:46:08;;;;;;;5.37;2.47;;;10.10;99.90;;;;;;5005798;28;20240;-68
2023/11/19 05:48:34;;;;;;;9.30;3.30;;;10.10;99.90;;;;;;4976161;28;20222;-69
2023/11/19 05:51:00;;;;;;;11.90;3.33;;;10.10;99.90;;;;;;4975948;28;20855;-68
2023/11/19 05:53:26;;;;;;;17.57;3.77;;;10.10;99.90;;;;;;4977605;28;20550;-70
2023/11/19 05:55:55;;;;;;;12.57;3.70;;;10.10;99.90;;;;;;4976951;28;20239;-70
2023/11/19 05:58:30;;;;;;;9.60;3.37;;;10.00;99.90;;;;;;4979747;28;20220;-68
2023/11/19 06:00:56;;;;;;;9.80;2.90;;;10.00;99.90;;;;;;4977634;28;20427;-71
2023/11/19 06:03:22;;;;;;;8.63;3.10;;;10.00;99.90;;;;;;4977869;28;20448;-69
2023/11/19 06:05:48;;;;;;;6.43;2.33;;;9.90;99.90;;;;;;4978285;28;20727;-69
2023/11/19 06:08:14;;;;;;;12.50;3.83;;;9.90;99.90;;;;;;4977348;28;20725;-70
2023/11/19 06:10:40;;;;;;;7.80;2.60;;;9.80;99.90;;;;;;4977416;28;20473;-69
2023/11/19 06:13:06;;;;;;;20.90;4.10;;;9.80;99.90;;;;;;4988948;28;20642;-69
2023/11/19 06:15:33;;;;;;;16.37;3.87;;;9.80;99.90;;;;;;4996589;28;20456;-70
2023/11/19 06:18:03;;;;;;;24.67;4.23;;;9.80;99.90;;;;;;4978235;28;20208;-69
2023/11/19 06:20:32;;;;;;;12.13;3.53;;;9.80;99.90;;;;;;4977710;28;20523;-71
2023/11/19 06:22:58;;;;;;;16.33;4.90;;;9.80;99.90;;;;;;4978445;28;20493;-70
2023/11/19 06:25:24;;;;;;;17.37;4.40;;;9.80;99.90;;;;;;4978673;28;20758;-71
2023/11/19 06:27:52;;;;;;;18.07;4.77;;;9.80;99.90;;;;;;4985099;28;20208;-70
2023/11/19 06:30:19;;;;;;;32.17;5.23;;;9.80;99.90;;;;;;4977615;28;20521;-70
2023/11/19 06:32:45;;;;;;;20.73;5.10;;;9.90;99.90;;;;;;4977667;28;20436;-70
2023/11/19 06:35:10;;;;;;;25.40;4.80;;;9.90;99.90;;;;;;4977511;28;20492;-69
2023/11/19 06:37:39;;;;;;;15.67;4.00;;;9.90;99.90;;;;;;4976463;28;20177;-69
2023/11/19 06:40:05;;;;;;;17.30;3.77;;;9.90;99.90;;;;;;4976908;28;20604;-69
2023/11/19 06:42:31;;;;;;;27.17;4.57;;;9.80;99.90;;;;;;4978747;28;20900;-70
2023/11/19 06:44:59;;;;;;;19.60;4.97;;;9.80;99.90;;;;;;4985810;28;20569;-70
2023/11/19 06:47:27;;;;;;;23.13;5.27;;;9.80;99.90;;;;;;4977508;28;20517;-69
2023/11/19 06:49:53;;;;;;;23.50;4.40;;;9.80;99.90;;;;;;4976574;28;20460;-70
2023/11/19 06:52:19;;;;;;;13.03;3.80;;;9.80;99.90;;;;;;4977653;28;20498;-70
2023/11/19 06:54:45;;;;;;;13.40;4.87;;;9.70;99.90;;;;;;4979283;28;20542;-69
2023/11/19 06:57:11;;;;;;;16.23;5.37;;;9.70;99.90;;;;;;4996587;28;20480;-71
2023/11/19 06:59:37;;;;;;;28.07;4.53;;;9.70;99.90;;;;;;5006854;28;20416;-71
2023/11/19 07:02:03;;;;;;;33.23;8.97;;;9.70;99.90;;;;;;4977793;28;20442;-68
2023/11/19 07:04:28;;;;;;;23.30;4.70;;;9.70;99.90;;;;;;4977126;28;20420;-70
2023/11/19 07:06:54;;;;;;;18.03;5.40;;;9.70;99.90;;;;;;4980433;28;21520;-69
2023/11/19 07:09:21;;;;;;;17.73;4.90;;;9.70;99.90;;;;;;4981218;28;20246;-70
2023/11/19 07:11:46;;;;;;;22.20;5.00;;;9.60;99.90;;;;;;4980873;28;20188;-69
2023/11/19 07:14:12;;;;;;;15.23;4.60;;;9.60;99.90;;;;;;4974445;28;20641;-70
2023/11/19 07:16:39;;;;;;;18.77;5.00;;;9.60;99.90;;;;;;5021228;28;20245;-69
2023/11/19 07:19:05;;;;;;;25.87;5.43;;;9.60;99.90;;;;;;4977910;28;20420;-69
2023/11/19 07:21:33;;;;;;;12.57;3.97;;;9.60;99.90;;;;;;4976572;28;20428;-70
2023/11/19 07:23:59;;;;;;;34.67;6.40;;;9.60;99.90;;;;;;4978470;28;20715;-68
2023/11/19 07:26:25;;;;;;;15.70;4.97;;;9.60;99.90;;;;;;4979481;28;20452;-69
2023/11/19 07:28:50;;;;;;;38.67;8.20;;;9.60;99.90;;;;;;5025469;28;20428;-69
2023/11/19 07:31:19;;;;;;;40.63;7.53;;;9.70;99.90;;;;;;4978093;28;20424;-69
2023/11/19 07:33:45;;;;;;;22.23;4.93;;;9.70;99.90;;;;;;4976895;28;20534;-68
2023/11/19 07:36:11;;;;;;;19.33;4.70;;;9.70;99.90;;;;;;4976904;28;20504;-69
2023/11/19 07:38:38;;;;;;;30.90;6.57;;;9.70;99.90;;;;;;4975856;28;20459;-70
2023/11/19 07:41:05;;;;;;;22.73;5.60;;;9.70;99.90;;;;;;4976445;28;20428;-68
2023/11/19 07:43:30;;;;;;;19.40;4.50;;;9.70;99.90;;;;;;5007356;28;20582;-69
2023/11/19 07:45:58;;;;;;;17.40;4.20;;;9.70;99.90;;;;;;5015468;28;20556;-70
2023/11/19 07:48:24;;;;;;;29.70;6.13;;;9.60;99.90;;;;;;4976664;28;20185;-70
2023/11/19 07:50:50;;;;;;;23.07;5.40;;;9.70;99.90;;;;;;4975225;28;20474;-70
2023/11/19 07:53:16;;;;;;;22.93;5.50;;;9.60;99.90;;;;;;4977297;28;20459;-69
2023/11/19 07:55:42;;;;;;;19.77;5.10;;;9.60;99.90;;;;;;4977498;28;20488;-69
2023/11/19 07:58:07;;;;;;;36.03;6.50;;;9.60;99.90;;;;;;5004058;28;20438;-69
2023/11/19 08:00:33;;;;;;;34.33;7.13;;;9.60;99.90;;;;;;4975799;28;20188;-70
2023/11/19 08:02:58;;;;;;;34.00;5.83;;;9.70;99.90;;;;;;4976044;28;20200;-71
2023/11/19 08:05:27;;;;;;;23.63;6.47;;;9.70;99.90;;;;;;4977226;28;20216;-69
2023/11/19 08:07:53;;;;;;;13.47;3.97;;;9.70;99.90;;;;;;4977228;28;20195;-70
2023/11/19 08:10:19;;;;;;;26.37;4.40;;;9.70;99.90;;;;;;4977455;28;20432;-70
2023/11/19 08:12:45;;;;;;;21.63;5.30;;;9.70;99.90;;;;;;4996327;28;20535;-70
2023/11/19 08:15:11;;;;;;;38.07;7.20;;;9.70;99.90;;;;;;5004825;28;20440;-72
2023/11/19 08:17:37;;;;;;;28.47;6.20;;;9.70;99.90;;;;;;4976666;28;20219;-68
2023/11/19 08:20:04;;;;;;;19.77;6.03;;;9.80;99.90;;;;;;4976593;28;20420;-71
2023/11/19 08:22:30;;;;;;;25.67;6.20;;;9.80;99.90;;;;;;4976913;28;20782;-69
2023/11/19 08:24:56;;;;;;;17.67;5.27;;;9.90;99.90;;;;;;4976526;28;20459;-68
2023/11/19 08:27:26;;;;;;;18.00;4.43;;;9.90;99.90;;;;;;4992929;28;20422;-69
2023/11/19 08:29:56;;;;;;;15.73;4.80;;;10.00;99.90;;;;;;4975045;28;20205;-70
2023/11/19 08:32:23;;;;;;;32.00;6.33;;;10.00;99.90;;;;;;4976855;28;20467;-71
2023/11/19 08:34:49;;;;;;;31.83;6.17;;;10.10;99.90;;;;;;4976215;28;20747;-70
2023/11/19 08:37:15;;;;;;;22.53;5.60;;;10.10;99.90;;;;;;4976770;28;20416;-71
2023/11/19 08:39:41;;;;;;;29.57;6.73;;;10.10;99.90;;;;;;4976685;28;20550;-69
2023/11/19 08:42:07;;;;;;;20.50;4.87;;;10.10;99.90;;;;;;4980420;28;20734;-72
2023/11/19 08:44:33;;;;;;;25.27;6.40;;;10.10;99.90;;;;;;4994706;28;20438;-72
2023/11/19 08:46:58;;;;;;;22.07;5.53;;;10.20;99.90;;;;;;4976298;28;20272;-70
2023/11/19 08:49:24;;;;;;;21.53;6.73;;;10.20;99.90;;;;;;4976303;28;20563;-72
2023/11/19 08:51:49;;;;;;;24.60;5.23;;;10.20;99.90;;;;;;4977059;28;20535;-71
2023/11/19 08:54:15;;;;;;;12.80;4.43;;;10.20;99.90;;;;;;4976822;28;20216;-72
2023/11/19 08:56:40;;;;;;;24.53;5.30;;;10.20;99.90;;;;;;4975415;28;20267;-70
2023/11/19 08:59:06;;;;;;;35.63;6.87;;;10.30;99.90;;;;;;4982379;28;20197;-69
2023/11/19 09:01:32;;;;;;;25.10;5.50;;;10.30;99.90;;;;;;4978731;28;20188;-69
2023/11/19 09:03:57;;;;;;;46.83;6.30;;;10.30;99.90;;;;;;4981580;28;20200;-73
2023/11/19 09:06:23;;;;;;;23.57;6.80;;;10.40;99.90;;;;;;4982189;28;20212;-71
2023/11/19 09:08:48;;;;;;;34.67;5.63;;;10.40;99.90;;;;;;4984615;28;20550;-71
2023/11/19 09:11:14;;;;;;;40.63;5.53;;;10.50;99.90;;;;;;4981430;28;20187;-71
2023/11/19 09:13:40;;;;;;;36.63;6.90;;;10.50;99.90;;;;;;4981689;28;20225;-70
2023/11/19 09:16:05;;;;;;;49.30;7.40;;;10.60;99.90;;;;;;4987378;28;20250;-70
2023/11/19 09:18:32;;;;;;;19.17;3.73;;;10.60;99.90;;;;;;4979560;28;20264;-71
2023/11/19 09:20:57;;;;;;;39.30;5.60;;;10.70;99.90;;;;;;4979379;28;20195;-72
2023/11/19 09:23:25;;;;;;;20.10;4.33;;;10.80;99.90;;;;;;4979827;28;20490;-70
2023/11/19 09:25:51;;;;;;;15.40;4.00;;;10.90;99.90;;;;;;4980309;28;20507;-71
2023/11/19 09:28:16;;;;;;;28.37;5.53;;;11.20;99.90;;;;;;4991935;28;20473;-71
2023/11/19 09:30:43;;;;;;;16.80;3.87;;;11.40;99.90;;;;;;4983069;28;20738;-70
2023/11/19 09:33:09;;;;;;;16.33;4.57;;;11.60;99.90;;;;;;4983776;28;20243;-72
2023/11/19 09:35:35;;;;;;;20.97;3.90;;;11.80;99.90;;;;;;4981941;28;20495;-72
2023/11/19 09:38:00;;;;;;;24.53;4.43;;;11.80;99.90;;;;;;4979366;28;20443;-72
2023/11/19 09:40:28;;;;;;;27.70;4.57;;;11.90;99.90;;;;;;4979448;28;20220;-70
2023/11/19 09:42:54;;;;;;;16.03;3.40;;;12.00;99.90;;;;;;5020960;28;20209;-71
2023/11/19 09:45:21;;;;;;;23.20;5.20;;;12.10;99.90;;;;;;5010750;28;20453;-70
2023/11/19 09:47:47;;;;;;;23.47;4.33;;;12.30;99.90;;;;;;4980572;28;20509;-70
2023/11/19 09:50:20;;;;;;;23.13;4.90;;;12.60;99.90;;;;;;4981769;28;20482;-69
2023/11/19 09:52:46;;;;;;;19.40;4.10;;;12.70;99.90;;;;;;4972101;28;20456;-73
2023/11/19 09:55:14;;;;;;;15.77;3.33;;;12.70;99.90;;;;;;4980877;28;20424;-71
2023/11/19 09:57:44;;;;;;;12.07;4.80;;;13.00;99.90;;;;;;5015569;28;20418;-70
2023/11/19 10:00:11;;;;;;;16.60;3.90;;;13.00;99.90;;;;;;4980301;28;20423;-70
2023/11/19 10:02:38;;;;;;;18.37;4.43;;;13.30;99.90;;;;;;4978968;28;20415;-70
2023/11/19 10:05:07;;;;;;;21.57;5.40;;;13.30;99.90;;;;;;4979815;28;20440;-71
2023/11/19 10:07:33;;;;;;;17.93;4.77;;;13.30;99.90;;;;;;4980289;28;20850;-70
2023/11/19 10:10:05;;;;;;;14.43;4.30;;;13.40;99.90;;;;;;4978902;28;20873;-71
2023/11/19 10:12:31;;;;;;;17.37;4.17;;;13.60;99.90;;;;;;5009597;28;20527;-73
2023/11/19 10:14:58;;;;;;;14.60;4.47;;;13.50;99.90;;;;;;4989806;28;20447;-71
2023/11/19 10:17:33;;;;;;;19.47;4.50;;;13.70;99.90;;;;;;4978386;28;20215;-71
2023/11/19 10:19:59;;;;;;;17.53;3.87;;;13.70;99.90;;;;;;4979207;28;20420;-70
2023/11/19 10:22:26;;;;;;;18.03;4.50;;;13.80;99.90;;;;;;4978904;28;20436;-73
2023/11/19 10:24:52;;;;;;;16.97;4.77;;;13.90;99.90;;;;;;4979159;28;20447;-72
2023/11/19 10:27:18;;;;;;;16.77;4.73;;;14.00;99.90;;;;;;5001831;28;20518;-71
2023/11/19 10:29:47;;;;;;;22.70;4.17;;;14.20;99.90;;;;;;4983079;28;20193;-73
2023/11/19 10:32:14;;;;;;;15.77;5.33;;;14.30;99.90;;;;;;4978448;28;20181;-70
2023/11/19 10:34:41;;;;;;;17.80;4.17;;;14.30;99.90;;;;;;4979081;28;20459;-72
2023/11/19 10:37:07;;;;;;;21.50;4.67;;;14.20;99.90;;;;;;4979231;28;20557;-71
2023/11/19 10:39:54;;;;;;;20.33;4.27;;;14.20;99.90;;;;;;4978200;28;20444;-71
2023/11/19 10:42:20;;;;;;;16.10;4.07;;;14.30;99.90;;;;;;5014685;28;20215;-70
2023/11/19 10:44:47;;;;;;;13.20;3.40;;;14.30;99.90;;;;;;5023103;28;20438;-70
2023/11/19 10:47:18;;;;;;;14.20;4.10;;;14.50;99.90;;;;;;4995763;28;20508;-72
2023/11/19 10:49:47;;;;;;;11.40;3.30;;;14.50;99.90;;;;;;4996440;28;20450;-70
2023/11/19 10:52:20;;;;;;;17.73;4.43;;;14.60;99.90;;;;;;4998207;28;20431;-71
2023/11/19 10:54:51;;;;;;;19.13;3.57;;;14.70;99.90;;;;;;4995022;28;20455;-70
2023/11/19 10:57:24;;;;;;;12.97;4.60;;;14.70;99.90;;;;;;5012280;28;20887;-71
2023/11/19 10:59:55;;;;;;;14.33;3.97;;;14.50;99.90;;;;;;4995015;28;20430;-71
2023/11/19 11:02:24;;;;;;;29.63;5.47;;;14.50;99.90;;;;;;4995336;28;20431;-71
2023/11/19 11:04:50;;;;;;;19.67;6.43;;;14.50;99.90;;;;;;4994853;28;20439;-73
2023/11/19 11:07:19;;;;;;;10.97;4.10;;;14.40;99.90;;;;;;4995469;28;20701;-71
2023/11/19 11:09:48;;;;;;;11.00;4.07;;;14.40;99.90;;;;;;4996225;28;20503;-72
2023/11/19 11:12:15;;;;;;;15.80;3.90;;;14.40;99.90;;;;;;5005123;28;20438;-71
2023/11/19 11:14:44;;;;;;;14.53;3.47;;;14.40;99.90;;;;;;4996021;28;20442;-72
2023/11/19 11:17:12;;;;;;;15.17;4.10;;;14.20;99.90;;;;;;4978782;28;20412;-71
2023/11/19 11:19:39;;;;;;;14.67;3.00;;;14.10;99.90;;;;;;4978209;28;20422;-69
2023/11/19 11:22:06;;;;;;;15.53;4.23;;;14.00;99.90;;;;;;4978560;28;20420;-73
2023/11/19 11:24:57;;;;;;;10.67;3.23;;;13.90;99.90;;;;;;4977840;28;20455;-71
2023/11/19 11:27:46;;;;;;;14.07;4.17;;;13.90;99.90;;;;;;4980987;28;20428;-72
2023/11/19 11:31:02;;;;;;;10.60;4.07;;;13.80;99.90;;;;;;5011009;28;20527;-72
2023/11/19 11:33:58;;;;;;;13.10;3.90;;;13.80;99.90;;;;;;4960468;28;20473;-72
2023/11/19 11:36:25;;;;;;;9.47;2.97;;;13.80;99.90;;;;;;4942261;28;20940;-73
2023/11/19 11:38:50;;;;;;;12.00;3.60;;;13.90;99.90;;;;;;4967470;28;20847;-71
2023/11/19 11:41:19;;;;;;;17.93;3.80;;;14.00;99.90;;;;;;4973092;28;20455;-74
2023/11/19 11:43:52;;;;;;;11.77;4.13;;;14.10;99.90;;;;;;5010573;28;20579;-73
2023/11/19 11:46:33;;;;;;;14.07;3.13;;;14.10;99.90;;;;;;4964028;28;20803;-71
2023/11/19 11:49:03;;;;;;;13.73;3.93;;;14.10;99.90;;;;;;4964529;28;20439;-72
2023/11/19 11:51:44;;;;;;;16.73;4.20;;;14.00;99.90;;;;;;4976833;28;20464;-72
2023/11/19 11:54:30;;;;;;;21.07;4.80;;;13.90;99.90;;;;;;4967332;28;20460;-75
2023/11/19 11:57:12;;;;;;;9.23;2.73;;;13.80;99.90;;;;;;4958169;28;20440;-71
2023/11/19 11:59:43;;;;;;;12.47;2.83;;;13.70;99.90;;;;;;4961920;28;20428;-72
2023/11/19 12:02:10;;;;;;;14.57;4.63;;;13.70;99.90;;;;;;4966867;28;20508;-74
2023/11/19 12:04:37;;;;;;;11.63;3.27;;;13.80;99.90;;;;;;4941178;29;20436;-70
2023/11/19 12:07:13;;;;;;;13.07;3.60;;;13.90;99.90;;;;;;4961440;28;20419;-71
2023/11/19 12:09:41;;;;;;;12.63;3.03;;;14.30;99.90;;;;;;4978143;28;20422;-70
2023/11/19 12:12:12;;;;;;;12.23;3.13;;;14.50;99.90;;;;;;4981084;28;21938;-71
2023/11/19 12:14:58;;;;;;;7.10;2.60;;;14.70;99.90;;;;;;5007178;28;20878;-71
2023/11/19 12:17:32;;;;;;;15.00;3.27;;;14.70;99.90;;;;;;4989220;28;20434;-74
2023/11/19 12:20:02;;;;;;;15.23;3.50;;;14.70;99.90;;;;;;4977925;28;20555;-71
2023/11/19 12:22:28;;;;;;;9.60;3.17;;;14.90;99.90;;;;;;4978695;28;20430;-72
2023/11/19 12:24:54;;;;;;;17.37;2.90;;;15.00;99.90;;;;;;4977921;28;20483;-71
2023/11/19 12:27:23;;;;;;;12.57;3.80;;;15.10;99.90;;;;;;5002685;28;20192;-72
2023/11/19 12:29:49;;;;;;;7.93;2.57;;;15.10;99.30;;;;;;4987735;28;20420;-72
2023/11/19 12:32:15;;;;;;;9.93;3.10;;;15.10;99.90;;;;;;4978393;28;20435;-72
2023/11/19 12:34:41;;;;;;;13.17;3.33;;;15.20;99.90;;;;;;4980486;28;20753;-70
2023/11/19 12:37:09;;;;;;;12.33;3.07;;;15.30;99.90;;;;;;4980137;28;20201;-72
2023/11/19 12:39:35;;;;;;;21.43;3.90;;;15.30;99.90;;;;;;4980915;28;20416;-71
2023/11/19 12:42:01;;;;;;;11.13;3.80;;;15.30;98.90;;;;;;4991804;28;20435;-74
2023/11/19 12:44:27;;;;;;;14.30;3.30;;;15.30;99.80;;;;;;5016839;28;20888;-71